Terminal Aerodrome Forecast
Issued by NWS

Home | Current Version | Previous Version | Graphics & Text | Print | Product List | Glossary On
Versions: 1 2 3 4 5 6 7 8 9 10 11 12 13 14 15 16 17
000
FTUS43 KBIS 310500
TAFMOT
TAF
KMOT 310536Z 3106/0106 15007KT P6SM -TSRA SCT035 OVC045CB
      TEMPO 3106/3107 5SM TSRA BR BKN035CB OVC045
     FM310800 21007KT 5SM -SHRA OVC045
     FM311100 28004KT P6SM BKN020
     FM312000 30008KT P6SM SCT020 BKN150=

USA.gov is the U.S. government's official web portal to all federal, state and local government web resources and services.